Time;durP1;ratioP1;P1;durP2;ratioP2;P2;SDS_P1;SDS_P2;PMS_P1;PMS_P2;Temp;Humidity;BMP_temperature;BMP_pressure;BME280_temperature;BME280_humidity;BME280_pressure;Samples;Min_cycle;Max_cycle;Signal;HPM_P1;HPM_P2
2022/10/03 00:00:15;;;;;;;14.85;3.20;;;13.10;88.60;;;;;;5086534;28;20148;-75
2022/10/03 00:02:43;;;;;;;12.82;3.70;;;13.10;88.70;;;;;;5088102;28;20055;-75
2022/10/03 00:05:24;;;;;;;11.18;3.55;;;13.10;89.00;;;;;;5090194;28;20571;-74
2022/10/03 00:08:35;;;;;;;17.50;3.40;;;13.10;89.20;;;;;;5082921;28;20016;-75
2022/10/03 00:11:38;;;;;;;17.40;4.38;;;13.00;89.30;;;;;;5041074;28;20032;-74
2022/10/03 00:14:34;;;;;;;12.82;3.28;;;13.00;89.10;;;;;;5070078;28;20063;-72
2022/10/03 00:17:28;;;;;;;12.02;3.65;;;13.00;89.00;;;;;;5085195;28;20103;-74
2022/10/03 00:20:04;;;;;;;17.88;4.97;;;12.90;88.90;;;;;;5055377;28;20040;-74
2022/10/03 00:22:36;;;;;;;17.98;7.22;;;12.90;88.90;;;;;;5083950;28;20039;-74
2022/10/03 00:25:31;;;;;;;18.15;6.10;;;12.90;88.70;;;;;;5081009;28;20031;-74
2022/10/03 00:28:15;;;;;;;15.60;5.20;;;12.90;88.60;;;;;;5066112;28;20040;-74
2022/10/03 00:30:53;;;;;;;15.60;7.00;;;12.90;88.60;;;;;;5081998;28;20036;-73
2022/10/03 00:33:45;;;;;;;14.38;5.22;;;12.80;88.50;;;;;;5084777;28;20511;-74
2022/10/03 00:36:46;;;;;;;10.88;3.58;;;12.80;88.60;;;;;;5060523;28;20031;-74
2022/10/03 00:39:37;;;;;;;14.57;3.30;;;12.80;88.60;;;;;;4988203;28;20042;-74
2022/10/03 00:42:38;;;;;;;13.98;3.17;;;12.80;88.50;;;;;;5069381;28;20045;-73
2022/10/03 00:45:32;;;;;;;10.50;3.22;;;12.80;88.90;;;;;;5063010;28;20031;-74
2022/10/03 00:48:22;;;;;;;14.65;3.88;;;12.70;88.80;;;;;;5084587;28;20073;-73
2022/10/03 00:50:58;;;;;;;;;;;12.70;89.00;;;;;;5085530;28;20031;-74
2022/10/03 00:53:48;;;;;;;16.75;3.72;;;12.70;89.20;;;;;;5064391;28;19920;-73
2022/10/03 00:56:56;;;;;;;16.30;4.40;;;12.60;89.60;;;;;;5088237;28;20036;-74
2022/10/03 00:59:43;;;;;;;18.90;3.70;;;12.60;90.00;;;;;;5082793;28;20032;-74
2022/10/03 01:02:33;;;;;;;14.43;3.70;;;12.60;90.00;;;;;;5070651;28;20441;-74
2022/10/03 01:05:26;;;;;;;13.60;3.50;;;12.60;90.00;;;;;;5077729;28;20035;-73
2022/10/03 01:08:16;;;;;;;18.40;4.88;;;12.50;89.70;;;;;;5074451;28;20398;-73
2022/10/03 01:11:07;;;;;;;18.63;4.78;;;12.50;89.70;;;;;;5078740;28;20020;-73
2022/10/03 01:13:56;;;;;;;14.98;4.88;;;12.50;89.90;;;;;;5086430;28;20058;-73
2022/10/03 01:16:59;;;;;;;14.07;4.55;;;12.50;89.90;;;;;;5082187;28;20031;-74
2022/10/03 01:19:37;;;;;;;16.73;5.00;;;12.40;90.00;;;;;;5084326;28;20040;-74
2022/10/03 01:22:24;;;;;;;17.98;5.63;;;12.40;90.10;;;;;;5087675;28;20506;-74
2022/10/03 01:25:28;;;;;;;20.90;5.45;;;12.40;90.20;;;;;;5078195;28;20031;-73
2022/10/03 01:31:11;;;;;;;11.50;4.25;;;12.30;90.00;;;;;;5087281;28;20074;-74
2022/10/03 01:33:47;;;;;;;12.77;4.78;;;12.30;89.90;;;;;;5088278;28;20626;-73
2022/10/03 01:36:51;;;;;;;15.75;4.55;;;12.30;89.90;;;;;;5076917;28;20019;-74
2022/10/03 01:39:16;;;;;;;18.27;6.10;;;12.30;90.00;;;;;;5069411;28;20059;-74
2022/10/03 01:41:58;;;;;;;17.95;5.97;;;12.30;89.60;;;;;;5077939;28;20113;-74
2022/10/03 01:44:29;;;;;;;20.25;6.10;;;12.30;89.50;;;;;;5073574;28;20545;-74
2022/10/03 01:47:12;;;;;;;20.42;6.13;;;12.30;89.60;;;;;;5057681;28;20056;-74
2022/10/03 01:49:52;;;;;;;17.27;5.90;;;12.20;89.80;;;;;;5084388;28;20033;-73
2022/10/03 01:52:17;;;;;;;18.45;6.20;;;12.20;89.80;;;;;;5080902;28;20705;-74
2022/10/03 01:54:59;;;;;;;18.45;6.07;;;12.20;89.70;;;;;;5069518;28;20119;-74
2022/10/03 01:57:52;;;;;;;16.27;6.95;;;12.20;89.70;;;;;;5081215;28;20028;-74
2022/10/03 02:00:22;;;;;;;14.57;5.28;;;12.20;89.70;;;;;;5083757;28;20037;-74
2022/10/03 02:02:54;;;;;;;12.32;5.70;;;12.10;89.40;;;;;;5073558;28;20025;-74
2022/10/03 02:05:58;;;;;;;18.27;5.47;;;12.10;89.40;;;;;;5080802;28;20580;-74
2022/10/03 02:08:39;;;;;;;10.82;5.53;;;12.10;89.60;;;;;;5088792;28;20099;-74
2022/10/03 02:11:08;;;;;;;14.90;5.80;;;12.10;89.70;;;;;;5087244;28;20038;-74
2022/10/03 02:13:57;;;;;;;15.18;5.15;;;12.10;89.70;;;;;;5072697;28;20036;-73
2022/10/03 02:16:35;;;;;;;13.95;5.53;;;12.10;89.80;;;;;;5088446;28;20028;-74
2022/10/03 02:19:28;;;;;;;14.40;5.53;;;12.10;89.70;;;;;;5075021;28;20016;-74
2022/10/03 02:21:56;;;;;;;15.43;6.43;;;12.10;89.70;;;;;;5080611;28;20074;-73
2022/10/03 02:24:38;;;;;;;14.43;4.60;;;12.10;89.50;;;;;;5072518;28;20051;-74
2022/10/03 02:27:45;;;;;;;16.77;5.00;;;12.00;89.60;;;;;;5083514;28;20500;-73
2022/10/03 02:30:18;;;;;;;15.85;4.55;;;12.00;89.90;;;;;;5022114;28;20063;-74
2022/10/03 02:33:22;;;;;;;13.98;4.72;;;12.00;89.90;;;;;;5087758;28;20012;-73
2022/10/03 02:36:25;;;;;;;15.07;4.82;;;12.00;90.10;;;;;;5088561;28;21339;-73
2022/10/03 02:39:24;;;;;;;13.15;5.53;;;12.00;90.00;;;;;;5035933;28;20075;-73
2022/10/03 02:42:14;;;;;;;14.25;5.65;;;11.90;90.10;;;;;;5086858;28;20479;-74
2022/10/03 02:45:21;;;;;;;13.68;5.63;;;11.90;90.20;;;;;;5089223;28;20032;-73
2022/10/03 02:47:59;;;;;;;32.80;15.07;;;11.90;90.30;;;;;;5074097;28;20062;-73
2022/10/03 02:50:49;;;;;;;35.28;19.90;;;11.90;90.30;;;;;;5054196;28;20405;-73
2022/10/03 02:53:40;;;;;;;41.42;22.58;;;11.90;90.30;;;;;;5069239;28;20028;-73
2022/10/03 02:56:12;;;;;;;36.90;19.35;;;11.90;90.30;;;;;;5092114;28;20569;-74
2022/10/03 02:58:59;;;;;;;25.30;13.55;;;11.90;90.30;;;;;;5089251;28;20028;-73
2022/10/03 03:01:40;;;;;;;32.67;17.08;;;11.90;90.40;;;;;;5091382;28;20050;-73
2022/10/03 03:04:18;;;;;;;24.70;12.38;;;11.90;90.50;;;;;;5088722;28;20024;-74
2022/10/03 03:07:31;;;;;;;32.03;12.75;;;11.90;90.60;;;;;;5073013;28;20055;-73
2022/10/03 03:10:34;;;;;;;42.15;17.30;;;11.90;90.90;;;;;;5072751;28;20393;-74
2022/10/03 03:13:21;;;;;;;32.15;16.30;;;11.90;90.60;;;;;;5086672;28;20064;-73
2022/10/03 03:16:24;;;;;;;34.65;15.35;;;11.90;90.60;;;;;;5090539;28;20024;-74
2022/10/03 03:19:31;;;;;;;45.67;20.20;;;11.90;90.60;;;;;;5086550;28;20035;-74
2022/10/03 03:22:24;;;;;;;55.03;26.83;;;11.90;90.60;;;;;;5090433;28;20075;-74
2022/10/03 03:25:18;;;;;;;31.73;15.20;;;11.80;90.60;;;;;;5068518;28;20077;-74
2022/10/03 03:28:00;;;;;;;28.13;15.30;;;11.80;90.80;;;;;;5069730;28;20083;-73
2022/10/03 03:30:38;;;;;;;27.13;12.10;;;11.80;90.90;;;;;;5079752;28;20166;-73
2022/10/03 03:33:06;;;;;;;19.85;8.77;;;11.90;90.90;;;;;;5089968;28;20035;-73
2022/10/03 03:35:58;;;;;;;15.30;7.40;;;11.90;90.80;;;;;;5089529;28;20390;-73
2022/10/03 03:38:27;;;;;;;15.77;6.15;;;11.90;90.70;;;;;;5087793;28;20482;-74
2022/10/03 03:41:13;;;;;;;14.15;5.63;;;11.90;90.50;;;;;;5076914;28;20147;-73
2022/10/03 03:43:44;;;;;;;10.88;5.15;;;11.90;90.50;;;;;;5081673;28;20529;-74
2022/10/03 03:46:29;;;;;;;15.07;8.30;;;11.90;90.40;;;;;;5061394;28;20028;-74
2022/10/03 03:49:02;;;;;;;21.83;10.52;;;11.90;90.30;;;;;;5065174;28;20013;-74
2022/10/03 03:51:50;;;;;;;20.38;10.93;;;11.80;90.20;;;;;;5058609;28;20025;-73
2022/10/03 03:54:31;;;;;;;18.48;10.65;;;11.80;90.20;;;;;;5075525;28;20074;-74
2022/10/03 03:57:21;;;;;;;18.10;10.20;;;11.80;90.20;;;;;;5090825;28;20027;-74
2022/10/03 04:00:07;;;;;;;16.88;8.90;;;11.70;90.10;;;;;;5086602;28;20020;-74
2022/10/03 04:02:51;;;;;;;20.38;8.80;;;11.70;90.10;;;;;;5051904;28;20040;-74
2022/10/03 04:05:33;;;;;;;20.33;9.68;;;11.70;90.20;;;;;;5062128;28;20103;-74
2022/10/03 04:08:11;;;;;;;14.95;8.00;;;11.70;90.20;;;;;;5070629;28;20024;-74
2022/10/03 04:10:56;;;;;;;13.68;5.97;;;11.60;90.20;;;;;;5085810;28;20666;-74
2022/10/03 04:13:56;;;;;;;15.57;5.40;;;11.60;90.20;;;;;;5071011;28;20035;-74
2022/10/03 04:19:39;;;;;;;14.63;5.22;;;11.60;90.30;;;;;;5087879;28;20535;-73
2022/10/03 04:22:29;;;;;;;11.35;4.75;;;11.60;90.30;;;;;;5078778;28;20040;-73
2022/10/03 04:25:06;;;;;;;11.88;4.65;;;11.60;90.40;;;;;;5086628;28;20115;-73
2022/10/03 04:27:46;;;;;;;9.98;4.32;;;11.60;90.40;;;;;;5076345;28;20020;-73
2022/10/03 04:30:17;;;;;;;13.57;5.38;;;11.60;90.40;;;;;;5068176;28;20126;-73
2022/10/03 04:33:07;;;;;;;13.38;5.22;;;11.60;90.30;;;;;;5082162;28;20355;-74
2022/10/03 04:35:50;;;;;;;14.90;6.65;;;11.60;90.30;;;;;;5084037;28;20490;-73
2022/10/03 04:38:42;;;;;;;19.40;8.20;;;11.50;90.20;;;;;;5082136;28;20495;-72
2022/10/03 04:41:30;;;;;;;16.23;7.50;;;11.50;90.30;;;;;;5067246;28;20042;-73
2022/10/03 04:44:19;;;;;;;18.63;8.32;;;11.50;90.20;;;;;;5073824;28;20028;-73
2022/10/03 04:46:56;;;;;;;14.43;6.68;;;11.50;90.30;;;;;;5055380;28;20033;-73
2022/10/03 04:49:27;;;;;;;17.55;6.65;;;11.50;90.30;;;;;;5078274;28;20047;-74
2022/10/03 04:52:02;;;;;;;14.45;5.07;;;11.50;90.40;;;;;;5079841;28;20479;-74
2022/10/03 04:55:17;;;;;;;9.43;4.57;;;11.50;90.50;;;;;;5074410;28;20036;-74
2022/10/03 04:58:04;;;;;;;15.32;4.85;;;11.50;90.70;;;;;;5017085;28;20037;-74
2022/10/03 05:00:49;;;;;;;16.02;5.50;;;11.40;90.60;;;;;;5009472;28;20041;-73
2022/10/03 05:03:32;;;;;;;11.40;5.00;;;11.40;90.80;;;;;;5053312;28;20044;-74
2022/10/03 05:06:05;;;;;;;14.43;4.03;;;11.40;91.10;;;;;;5080690;28;20810;-73
2022/10/03 05:08:44;;;;;;;16.63;4.15;;;11.40;91.20;;;;;;5082380;28;20020;-73
2022/10/03 05:11:23;;;;;;;10.73;3.53;;;11.40;91.20;;;;;;5070702;28;20031;-74
2022/10/03 05:14:15;;;;;;;13.45;4.18;;;11.40;91.10;;;;;;5075008;28;20027;-74
2022/10/03 05:17:02;;;;;;;12.93;4.10;;;11.40;91.00;;;;;;5078896;28;20024;-74
2022/10/03 05:19:51;;;;;;;12.00;4.15;;;11.40;90.90;;;;;;5080659;28;20035;-74
2022/10/03 05:22:42;;;;;;;14.43;4.93;;;11.40;90.90;;;;;;5075326;28;20425;-73
2022/10/03 05:25:30;;;;;;;17.17;5.65;;;11.40;91.00;;;;;;5064430;28;20677;-74
2022/10/03 05:28:15;;;;;;;17.55;6.38;;;11.40;91.00;;;;;;5080115;28;20020;-74
2022/10/03 05:31:27;;;;;;;15.75;6.07;;;11.40;90.90;;;;;;5059844;28;20040;-73
2022/10/03 05:33:59;;;;;;;15.55;6.22;;;11.40;91.00;;;;;;5031866;28;20033;-74
2022/10/03 05:36:28;;;;;;;13.13;5.38;;;11.40;91.00;;;;;;5080621;28;20032;-74
2022/10/03 05:39:23;;;;;;;14.52;5.15;;;11.40;90.90;;;;;;5085569;28;20614;-74
2022/10/03 05:41:52;;;;;;;14.55;5.05;;;11.40;90.90;;;;;;5096755;28;20028;-74
2022/10/03 05:44:33;;;;;;;16.65;5.53;;;11.40;90.70;;;;;;5084189;28;20083;-74
2022/10/03 05:47:43;;;;;;;16.17;6.80;;;11.40;90.70;;;;;;5066025;28;20012;-74
2022/10/03 05:50:14;;;;;;;17.60;7.82;;;11.40;90.70;;;;;;5085396;28;20036;-74
2022/10/03 05:53:00;;;;;;;22.10;10.65;;;11.40;90.70;;;;;;5080385;28;20020;-74
2022/10/03 05:55:44;;;;;;;17.27;9.07;;;11.40;90.70;;;;;;5064821;28;20170;-74
2022/10/03 05:58:32;;;;;;;17.58;9.23;;;11.40;90.70;;;;;;5078959;28;20108;-74
2022/10/03 06:01:37;;;;;;;19.55;7.68;;;11.40;90.80;;;;;;5064864;28;20550;-75
2022/10/03 06:04:36;;;;;;;74.63;41.85;;;11.40;90.90;;;;;;5081888;28;20550;-74
2022/10/03 06:07:50;;;;;;;87.25;54.03;;;11.40;91.10;;;;;;5066781;28;20020;-74
2022/10/03 06:10:59;;;;;;;36.42;22.23;;;11.30;91.30;;;;;;4986974;28;20054;-78
2022/10/03 06:13:58;;;;;;;23.23;12.88;;;11.30;91.80;;;;;;4931032;29;20083;-76
2022/10/03 06:16:39;;;;;;;23.43;10.57;;;11.40;92.00;;;;;;5067380;28;20032;-76
2022/10/03 06:19:23;;;;;;;14.57;6.40;;;11.40;92.30;;;;;;5086778;28;20052;-76
2022/10/03 06:22:33;;;;;;;13.38;6.32;;;11.50;92.50;;;;;;5087614;28;20044;-77
2022/10/03 06:25:05;;;;;;;9.13;4.78;;;11.50;92.70;;;;;;5077643;28;20048;-76
2022/10/03 06:28:05;;;;;;;8.85;4.78;;;11.70;92.50;;;;;;5068519;28;20128;-76
2022/10/03 06:31:03;;;;;;;12.98;5.32;;;11.80;92.50;;;;;;5080584;28;20032;-76
2022/10/03 06:34:02;;;;;;;10.57;4.13;;;11.90;92.30;;;;;;5091511;28;20111;-74
2022/10/03 06:36:51;;;;;;;10.70;3.65;;;12.00;92.30;;;;;;5091483;28;20066;-74
2022/10/03 06:39:32;;;;;;;10.02;5.38;;;12.20;92.30;;;;;;5072990;28;20048;-74
2022/10/03 06:42:35;;;;;;;9.70;3.92;;;12.30;92.00;;;;;;5075404;28;20055;-75
2022/10/03 06:45:22;;;;;;;8.40;4.10;;;12.40;91.50;;;;;;5088768;28;20482;-75
2022/10/03 06:48:09;;;;;;;7.90;3.83;;;12.60;91.40;;;;;;5084984;28;20133;-74
2022/10/03 06:51:07;;;;;;;10.00;3.65;;;12.70;91.30;;;;;;5074510;28;20024;-74
2022/10/03 06:54:16;;;;;;;9.50;5.20;;;12.80;91.10;;;;;;5077634;28;20085;-74
2022/10/03 06:57:18;;;;;;;12.50;4.30;;;12.90;90.90;;;;;;5078319;28;20081;-73
2022/10/03 07:00:14;;;;;;;7.00;3.90;;;13.00;90.70;;;;;;5077731;28;20031;-73
2022/10/03 07:03:01;;;;;;;11.48;5.18;;;13.10;90.50;;;;;;5083528;28;20046;-72
2022/10/03 07:05:51;;;;;;;9.73;4.88;;;13.10;90.50;;;;;;5082243;28;21395;-72
2022/10/03 07:08:35;;;;;;;;;;;13.20;90.40;;;;;;5083492;28;20047;-73
2022/10/03 07:11:09;;;;;;;9.32;3.65;;;13.30;90.20;;;;;;5064842;28;19908;-73
2022/10/03 07:14:05;;;;;;;9.73;4.32;;;13.40;90.10;;;;;;5065099;28;20024;-72
2022/10/03 07:16:49;;;;;;;8.68;3.70;;;13.50;90.00;;;;;;5082675;28;20020;-73
2022/10/03 07:19:43;;;;;;;8.82;3.75;;;13.50;89.40;;;;;;5081977;28;20043;-73
2022/10/03 07:22:46;;;;;;;9.52;5.07;;;13.60;89.00;;;;;;5064771;28;20056;-72
2022/10/03 07:25:24;;;;;;;8.82;3.67;;;13.80;89.00;;;;;;5081977;28;20378;-73
2022/10/03 07:28:11;;;;;;;11.05;4.97;;;13.80;88.50;;;;;;5085010;28;20077;-74
2022/10/03 07:31:01;;;;;;;12.32;4.93;;;13.90;88.20;;;;;;5063748;28;20158;-74
2022/10/03 07:33:44;;;;;;;13.32;5.22;;;14.00;88.30;;;;;;5080770;28;20036;-72
2022/10/03 07:39:52;;;;;;;10.55;3.85;;;14.30;87.90;;;;;;5083830;28;20082;-72
2022/10/03 07:42:39;;;;;;;8.38;3.90;;;14.50;87.40;;;;;;5083400;28;20089;-73
2022/10/03 07:45:39;;;;;;;10.82;4.63;;;14.70;87.00;;;;;;5082314;28;20024;-74
2022/10/03 07:48:36;;;;;;;14.63;5.15;;;14.90;86.20;;;;;;5084202;28;20018;-73
2022/10/03 07:51:27;;;;;;;9.48;4.07;;;15.10;86.40;;;;;;5083254;28;20020;-74
2022/10/03 07:54:05;;;;;;;7.70;3.13;;;15.30;86.30;;;;;;5083138;28;20057;-70
2022/10/03 07:57:04;;;;;;;12.45;4.32;;;15.50;85.90;;;;;;5080980;28;20425;-75
2022/10/03 08:00:09;;;;;;;11.27;3.83;;;15.60;84.60;;;;;;5062641;28;20458;-73
2022/10/03 08:02:53;;;;;;;12.40;4.65;;;15.80;84.20;;;;;;5082380;28;20051;-73
2022/10/03 08:05:31;;;;;;;11.35;4.25;;;15.90;84.00;;;;;;5084208;28;20024;-74
2022/10/03 08:08:01;;;;;;;10.30;4.20;;;16.00;83.20;;;;;;5081574;28;20016;-73
2022/10/03 08:11:03;;;;;;;7.43;3.88;;;16.20;83.00;;;;;;5081845;28;20024;-73
2022/10/03 08:13:50;;;;;;;8.45;3.92;;;16.30;82.20;;;;;;5081586;28;20028;-74
2022/10/03 08:16:45;;;;;;;9.88;4.20;;;16.50;82.30;;;;;;5080125;28;20020;-73
2022/10/03 08:19:32;;;;;;;11.27;3.72;;;16.70;81.70;;;;;;5081182;28;20050;-72
2022/10/03 08:22:04;;;;;;;13.18;3.85;;;16.90;81.10;;;;;;5078407;28;20044;-72
2022/10/03 08:24:55;;;;;;;12.82;4.13;;;17.10;80.90;;;;;;5082680;28;20052;-74
2022/10/03 08:27:59;;;;;;;13.75;4.50;;;17.30;80.30;;;;;;5082488;28;20024;-77
2022/10/03 08:31:18;;;;;;;8.18;4.00;;;17.40;80.00;;;;;;5081167;28;20082;-75
2022/10/03 08:34:03;;;;;;;9.00;3.47;;;17.60;79.90;;;;;;5063166;28;20478;-74
2022/10/03 08:36:38;;;;;;;13.75;3.55;;;17.70;80.10;;;;;;5081814;28;20036;-73
2022/10/03 08:39:33;;;;;;;11.30;4.53;;;17.80;79.00;;;;;;5080427;28;20024;-75
2022/10/03 08:42:21;;;;;;;10.88;4.70;;;17.80;77.70;;;;;;5063136;28;20036;-74
2022/10/03 08:45:02;;;;;;;8.73;4.07;;;17.80;78.20;;;;;;5081024;28;20040;-74
2022/10/03 08:47:49;;;;;;;6.00;3.30;;;17.90;78.70;;;;;;5082981;28;20036;-73
2022/10/03 08:50:42;;;;;;;14.23;5.20;;;18.00;78.60;;;;;;5062489;28;20610;-74
2022/10/03 08:53:37;;;;;;;11.02;4.38;;;18.00;78.10;;;;;;5061677;28;20024;-74
2022/10/03 08:56:15;;;;;;;10.93;4.93;;;18.10;78.00;;;;;;5064636;28;20051;-72
2022/10/03 08:59:06;;;;;;;10.90;4.80;;;18.20;77.50;;;;;;5081735;28;20024;-73
2022/10/03 09:01:44;;;;;;;13.95;4.93;;;18.30;78.30;;;;;;5078623;28;20093;-74
2022/10/03 09:04:21;;;;;;;9.10;3.30;;;18.50;77.00;;;;;;5079731;28;20033;-73
2022/10/03 09:06:56;;;;;;;9.00;3.65;;;18.80;77.20;;;;;;5062470;28;20754;-74
2022/10/03 09:09:34;;;;;;;6.88;2.60;;;18.90;76.30;;;;;;5081277;28;20020;-74
2022/10/03 09:12:11;;;;;;;10.05;3.17;;;19.00;75.40;;;;;;5061765;28;20016;-74
2022/10/03 09:14:53;;;;;;;8.93;3.25;;;19.00;74.70;;;;;;5076125;28;20052;-74
2022/10/03 09:17:48;;;;;;;10.45;3.85;;;19.10;73.90;;;;;;5063351;28;20103;-74
2022/10/03 09:20:35;;;;;;;13.85;4.07;;;19.10;74.10;;;;;;5060958;28;20535;-76
2022/10/03 09:23:11;;;;;;;10.60;3.20;;;19.10;73.90;;;;;;5079237;28;20052;-75
2022/10/03 09:26:11;;;;;;;10.90;3.70;;;19.20;72.90;;;;;;5062961;28;20113;-75
2022/10/03 09:29:16;;;;;;;8.32;2.60;;;19.40;73.30;;;;;;5080763;28;20024;-76
2022/10/03 09:31:54;;;;;;;7.82;2.65;;;19.70;71.60;;;;;;5048158;28;20483;-76
2022/10/03 09:34:57;;;;;;;10.30;3.03;;;19.90;71.40;;;;;;5080095;28;20024;-74
2022/10/03 09:37:38;;;;;;;8.40;3.40;;;20.00;70.60;;;;;;5062942;28;20047;-74
2022/10/03 09:40:38;;;;;;;11.95;3.80;;;20.10;70.10;;;;;;5080865;28;20448;-74
2022/10/03 09:43:09;;;;;;;7.40;2.20;;;20.20;70.20;;;;;;5063498;28;20043;-75
2022/10/03 09:46:12;;;;;;;9.77;2.78;;;20.30;68.80;;;;;;5082018;28;20107;-73
2022/10/03 09:49:27;;;;;;;9.00;3.03;;;20.40;69.00;;;;;;5082745;28;20031;-73
2022/10/03 09:51:58;;;;;;;12.45;3.05;;;20.70;69.50;;;;;;5074588;28;20104;-74
2022/10/03 09:54:43;;;;;;;9.80;2.80;;;20.80;67.90;;;;;;5082486;28;20540;-76
2022/10/03 09:57:47;;;;;;;11.50;2.78;;;20.90;66.60;;;;;;5055589;28;20032;-73
2022/10/03 10:00:46;;;;;;;9.13;2.97;;;20.90;68.60;;;;;;5088029;28;20170;-74
2022/10/03 10:03:31;;;;;;;10.00;3.08;;;20.90;66.20;;;;;;5061401;28;20123;-74
2022/10/03 10:06:18;;;;;;;8.77;2.10;;;21.00;67.80;;;;;;5079522;28;20025;-74
2022/10/03 10:09:21;;;;;;;7.38;2.00;;;21.00;68.70;;;;;;5082270;28;20081;-74
2022/10/03 10:12:14;;;;;;;6.53;2.38;;;21.10;68.10;;;;;;5080777;28;20024;-74
2022/10/03 10:14:52;;;;;;;10.15;2.15;;;21.20;66.30;;;;;;5080155;28;20032;-75
2022/10/03 10:17:43;;;;;;;5.90;2.08;;;21.30;63.30;;;;;;5079504;28;20096;-74
2022/10/03 10:20:33;;;;;;;5.07;1.75;;;21.20;65.00;;;;;;5062393;28;20478;-75
2022/10/03 10:23:20;;;;;;;5.65;1.20;;;21.30;64.40;;;;;;5079910;28;20040;-77
2022/10/03 10:26:20;;;;;;;7.65;1.77;;;21.20;69.40;;;;;;5065553;28;20020;-77
2022/10/03 10:28:58;;;;;;;8.37;2.60;;;21.30;68.80;;;;;;5084692;28;20040;-74
2022/10/03 10:31:51;;;;;;;6.70;1.40;;;21.30;66.50;;;;;;5085146;28;20287;-74
2022/10/03 10:34:56;;;;;;;7.70;1.98;;;21.40;66.00;;;;;;5065050;28;20028;-73
2022/10/03 10:37:53;;;;;;;7.40;1.30;;;21.40;66.10;;;;;;5085268;28;20024;-74
2022/10/03 10:40:31;;;;;;;8.57;1.75;;;21.30;64.90;;;;;;5082583;28;20028;-73
2022/10/03 10:43:39;;;;;;;7.68;2.72;;;21.20;63.20;;;;;;5081974;28;20047;-72
2022/10/03 10:46:35;;;;;;;7.22;1.95;;;21.10;64.10;;;;;;5065346;28;20383;-73
2022/10/03 10:49:25;;;;;;;10.20;2.60;;;21.20;65.30;;;;;;5084033;28;20032;-76
2022/10/03 10:52:11;;;;;;;6.60;1.90;;;21.50;63.40;;;;;;5063984;28;20027;-75
2022/10/03 10:55:13;;;;;;;6.50;2.22;;;21.60;65.80;;;;;;5082516;28;20024;-74
2022/10/03 10:58:20;;;;;;;7.93;2.38;;;21.80;65.00;;;;;;5081260;28;20035;-75
2022/10/03 11:01:04;;;;;;;10.25;2.67;;;22.00;61.90;;;;;;5062478;28;20375;-73
2022/10/03 11:03:51;;;;;;;9.13;3.13;;;22.20;65.40;;;;;;5081282;28;20143;-73
2022/10/03 11:06:36;;;;;;;7.57;1.70;;;22.30;63.10;;;;;;5065585;28;20028;-73
2022/10/03 11:09:10;;;;;;;13.07;3.42;;;22.40;65.30;;;;;;5084496;28;20109;-73
2022/10/03 11:12:05;;;;;;;9.15;3.10;;;22.40;65.00;;;;;;5064028;28;20443;-73
2022/10/03 11:14:51;;;;;;;9.35;2.13;;;22.30;66.00;;;;;;5081952;28;20027;-73
2022/10/03 11:17:39;;;;;;;7.03;1.73;;;22.10;69.50;;;;;;5067499;28;20565;-73
2022/10/03 11:20:41;;;;;;;9.43;2.65;;;21.90;67.80;;;;;;5087014;28;20094;-74
2022/10/03 11:23:13;;;;;;;7.72;2.05;;;21.90;75.60;;;;;;5089744;28;20040;-72
2022/10/03 11:25:57;;;;;;;7.38;1.75;;;21.80;76.90;;;;;;5060158;28;20016;-73
2022/10/03 11:28:44;;;;;;;8.18;2.22;;;21.70;76.30;;;;;;5087609;28;20024;-73
2022/10/03 11:31:41;;;;;;;7.07;1.40;;;21.60;68.40;;;;;;5079851;28;20090;-72
2022/10/03 11:34:32;;;;;;;8.05;1.70;;;21.40;64.40;;;;;;5070941;28;20024;-72
2022/10/03 11:37:22;;;;;;;7.85;1.65;;;21.20;60.30;;;;;;5076298;28;20060;-74
2022/10/03 11:40:08;;;;;;;;;;;21.30;61.40;;;;;;5075087;28;20024;-73
2022/10/03 11:43:03;;;;;;;5.43;1.60;;;21.60;64.10;;;;;;5074385;28;19970;-73
2022/10/03 11:45:41;;;;;;;6.03;1.63;;;22.00;59.70;;;;;;5066583;28;20031;-73
2022/10/03 11:48:24;;;;;;;5.90;1.10;;;22.30;57.80;;;;;;5052124;28;20071;-73
2022/10/03 11:50:56;;;;;;;7.78;1.70;;;22.40;59.70;;;;;;5055031;28;20028;-73
2022/10/03 11:53:32;;;;;;;7.90;1.75;;;22.20;57.30;;;;;;5089039;28;20063;-72
2022/10/03 11:56:29;;;;;;;6.97;1.55;;;22.30;59.10;;;;;;5077769;28;20052;-72
2022/10/03 11:59:25;;;;;;;6.05;1.92;;;22.30;64.20;;;;;;5068799;28;20025;-73
2022/10/03 12:02:06;;;;;;;10.00;1.73;;;22.30;61.30;;;;;;5077919;28;20059;-73
2022/10/03 12:04:43;;;;;;;9.93;1.55;;;22.30;59.80;;;;;;5090606;28;20123;-72
2022/10/03 12:10:16;;;;;;;4.00;0.90;;;22.10;57.40;;;;;;5071805;28;20081;-72
2022/10/03 12:12:44;;;;;;;6.10;1.48;;;21.90;58.80;;;;;;5066889;28;20025;-73
2022/10/03 12:15:25;;;;;;;6.00;1.38;;;21.90;60.10;;;;;;5070945;28;20092;-73
2022/10/03 12:18:06;;;;;;;7.85;1.77;;;21.90;59.30;;;;;;5079252;28;20099;-73
2022/10/03 12:20:56;;;;;;;9.40;1.17;;;21.80;55.30;;;;;;5088351;28;20047;-72
2022/10/03 12:23:43;;;;;;;3.22;1.10;;;21.70;57.80;;;;;;5081238;28;20054;-71
2022/10/03 12:26:16;;;;;;;5.50;1.38;;;21.60;59.50;;;;;;5085902;28;20501;-73
2022/10/03 12:28:47;;;;;;;5.22;1.00;;;21.60;62.20;;;;;;5059117;28;20078;-73
2022/10/03 12:31:45;;;;;;;6.22;1.38;;;21.70;62.60;;;;;;5072987;28;20028;-72
2022/10/03 12:34:36;;;;;;;2.75;0.82;;;21.70;59.70;;;;;;5074545;28;20024;-74
2022/10/03 12:37:31;;;;;;;5.00;1.08;;;21.60;57.80;;;;;;5071508;28;20020;-71
2022/10/03 12:40:15;;;;;;;3.92;1.20;;;21.60;56.50;;;;;;5052756;28;20020;-73
2022/10/03 12:42:55;;;;;;;3.75;1.00;;;21.60;61.70;;;;;;5064033;28;20110;-73
2022/10/03 12:45:39;;;;;;;6.55;1.20;;;21.60;65.80;;;;;;5051913;28;20024;-73
2022/10/03 12:48:28;;;;;;;5.45;1.35;;;21.60;57.50;;;;;;5063655;28;20566;-73
2022/10/03 12:51:01;;;;;;;6.50;0.97;;;21.50;57.30;;;;;;5051862;28;20025;-72
2022/10/03 12:53:46;;;;;;;3.75;0.93;;;21.50;57.80;;;;;;5058787;28;20270;-73
2022/10/03 12:56:22;;;;;;;5.32;1.02;;;21.40;57.20;;;;;;5090207;28;20024;-72
2022/10/03 12:59:14;;;;;;;6.57;1.27;;;21.50;57.60;;;;;;5066137;28;20498;-72
2022/10/03 13:02:01;;;;;;;4.80;1.17;;;21.50;57.60;;;;;;5053547;28;20087;-72
2022/10/03 13:04:53;;;;;;;6.32;1.42;;;21.50;59.90;;;;;;5078228;28;20024;-72
2022/10/03 13:08:00;;;;;;;7.43;1.42;;;21.40;59.40;;;;;;5086537;28;20052;-72
2022/10/03 13:10:41;;;;;;;6.93;1.23;;;21.30;57.80;;;;;;5084862;28;20513;-72
2022/10/03 13:13:20;;;;;;;4.22;0.88;;;21.20;60.80;;;;;;5086903;28;20024;-72
2022/10/03 13:16:07;;;;;;;7.57;1.42;;;21.10;59.70;;;;;;5089217;28;20028;-72
2022/10/03 13:18:44;;;;;;;7.20;1.63;;;21.10;59.70;;;;;;5079516;28;20048;-74
2022/10/03 13:21:35;;;;;;;9.48;1.27;;;21.10;60.20;;;;;;5087698;28;20044;-72
2022/10/03 13:24:28;;;;;;;5.38;1.20;;;21.00;62.20;;;;;;5077107;28;20025;-72
2022/10/03 13:27:31;;;;;;;4.35;1.10;;;21.00;60.40;;;;;;5067931;28;20028;-73
2022/10/03 13:30:20;;;;;;;7.82;1.70;;;20.90;62.70;;;;;;5080055;28;20021;-73
2022/10/03 13:32:49;;;;;;;9.40;1.83;;;20.90;60.60;;;;;;5052535;28;20029;-73
2022/10/03 13:38:33;;;;;;;6.07;1.40;;;20.60;59.20;;;;;;5086484;28;20043;-73
2022/10/03 13:41:11;;;;;;;6.60;1.33;;;20.50;60.60;;;;;;5075849;28;20071;-73
2022/10/03 13:43:40;;;;;;;6.55;1.65;;;20.50;63.10;;;;;;5059347;28;20024;-73
2022/10/03 13:46:15;;;;;;;6.78;1.20;;;20.50;62.10;;;;;;5081932;28;20477;-74
2022/10/03 13:48:55;;;;;;;5.80;1.98;;;20.50;61.80;;;;;;5059616;28;20016;-73
2022/10/03 13:51:21;;;;;;;6.43;1.40;;;20.50;61.80;;;;;;5077779;28;20084;-73
2022/10/03 13:54:00;;;;;;;7.60;1.88;;;20.50;62.50;;;;;;5079788;28;20028;-73
2022/10/03 13:56:43;;;;;;;7.93;1.50;;;20.50;63.10;;;;;;5059239;28;20059;-73
2022/10/03 13:59:31;;;;;;;6.40;1.20;;;20.40;60.90;;;;;;5083778;28;20825;-73
2022/10/03 14:02:09;;;;;;;4.57;1.23;;;20.50;60.60;;;;;;5078965;28;20687;-75
2022/10/03 14:04:49;;;;;;;6.22;1.30;;;20.60;61.80;;;;;;5068986;28;20131;-74
2022/10/03 14:07:53;;;;;;;4.75;1.63;;;20.80;61.70;;;;;;5068008;28;20673;-75
2022/10/03 14:10:25;;;;;;;5.25;1.20;;;20.90;64.00;;;;;;5061775;28;20065;-74
2022/10/03 14:13:15;;;;;;;6.38;1.58;;;21.00;65.70;;;;;;5086921;28;20035;-75
2022/10/03 14:16:03;;;;;;;3.75;1.10;;;21.00;65.20;;;;;;5083789;28;20024;-77
2022/10/03 14:18:34;;;;;;;4.25;1.00;;;21.10;66.70;;;;;;5084632;28;20028;-77
2022/10/03 14:21:05;;;;;;;4.20;1.17;;;21.20;68.50;;;;;;5087274;28;20056;-78
2022/10/03 14:23:41;;;;;;;3.47;1.02;;;21.20;68.60;;;;;;5085185;28;20028;-77
2022/10/03 14:26:16;;;;;;;5.50;1.38;;;21.30;69.20;;;;;;5069074;28;20031;-77
2022/10/03 14:28:56;;;;;;;4.55;1.02;;;21.20;69.30;;;;;;5054305;28;20021;-74
2022/10/03 14:31:30;;;;;;;;;;;21.10;69.60;;;;;;5069043;28;20390;-75
2022/10/03 14:34:32;;;;;;;8.45;2.20;;;21.10;66.80;;;;;;5091742;28;20362;-76
2022/10/03 14:37:13;;;;;;;4.10;1.27;;;21.00;63.90;;;;;;5079324;28;20028;-74